createdAt,value
2019-02-26T00:00:14.380Z,43.17
2019-02-26T00:02:41.622Z,41.27
2019-02-26T00:05:07.941Z,41.63
2019-02-26T00:07:34.089Z,43.47
2019-02-26T00:10:02.616Z,47.40
2019-02-26T00:12:31.119Z,43.80
2019-02-26T00:15:00.210Z,39.17
2019-02-26T00:17:26.064Z,44.43
2019-02-26T00:19:52.300Z,43.27
2019-02-26T00:22:18.743Z,43.37
2019-02-26T00:24:46.619Z,43.63
2019-02-26T00:27:12.933Z,39.60
2019-02-26T00:29:39.108Z,41.47
2019-02-26T00:32:06.992Z,44.37
2019-02-26T00:34:34.598Z,36.23
2019-02-26T00:37:02.180Z,38.97
2019-02-26T00:39:31.377Z,41.60
2019-02-26T00:41:58.828Z,45.50
2019-02-26T00:44:27.438Z,38.03
2019-02-26T00:46:55.721Z,39.17
2019-02-26T00:49:23.706Z,41.00
2019-02-26T00:51:52.333Z,37.13
2019-02-26T00:54:20.182Z,35.87
2019-02-26T00:56:46.388Z,36.87
2019-02-26T00:59:12.495Z,36.67
2019-02-26T01:01:39.918Z,35.93
2019-02-26T01:04:06.160Z,38.20
2019-02-26T01:06:33.535Z,37.47
2019-02-26T01:09:01.833Z,38.73
2019-02-26T01:11:30.218Z,36.07
2019-02-26T01:13:57.407Z,35.67
2019-02-26T01:16:24.817Z,37.80
2019-02-26T01:18:51.505Z,34.87
2019-02-26T01:21:22.146Z,34.90
2019-02-26T01:23:47.061Z,39.10
2019-02-26T01:26:13.378Z,32.43
2019-02-26T01:28:39.755Z,34.30
2019-02-26T01:31:07.357Z,34.37
2019-02-26T01:33:34.272Z,37.33
2019-02-26T01:36:02.536Z,37.37
2019-02-26T01:38:28.631Z,38.37
2019-02-26T01:40:55.953Z,36.57
2019-02-26T01:43:22.316Z,36.17
2019-02-26T01:45:50.829Z,34.57
2019-02-26T01:48:18.523Z,37.50
2019-02-26T01:50:44.950Z,37.27
2019-02-26T01:53:14.044Z,32.63
2019-02-26T01:55:42.120Z,34.63
2019-02-26T01:58:08.220Z,32.50
2019-02-26T02:00:34.351Z,29.57
2019-02-26T02:03:00.730Z,33.40
2019-02-26T02:05:29.438Z,34.07
2019-02-26T02:07:55.963Z,34.63
2019-02-26T02:10:22.466Z,32.63
2019-02-26T02:12:48.693Z,34.67
2019-02-26T02:15:17.923Z,32.37
2019-02-26T02:17:43.504Z,33.50
2019-02-26T02:20:16.412Z,34.60
2019-02-26T02:22:44.396Z,29.57
2019-02-26T02:25:11.023Z,33.63
2019-02-26T02:27:37.330Z,34.63
2019-02-26T02:30:14.172Z,34.50
2019-02-26T02:32:38.739Z,34.47
2019-02-26T02:35:07.418Z,32.47
2019-02-26T02:37:34.490Z,28.73
2019-02-26T02:40:00.877Z,35.40
2019-02-26T02:42:27.087Z,31.23
2019-02-26T02:44:53.182Z,35.73
2019-02-26T02:47:20.482Z,35.03
2019-02-26T02:49:47.689Z,34.00
2019-02-26T02:52:14.962Z,34.93
2019-02-26T02:54:43.800Z,33.73
2019-02-26T02:57:10.027Z,30.87
2019-02-26T02:59:41.758Z,34.20
2019-02-26T03:02:06.789Z,37.40
2019-02-26T03:04:34.758Z,34.50
2019-02-26T03:07:03.284Z,34.63
2019-02-26T03:09:31.249Z,33.63
2019-02-26T03:11:57.503Z,36.47
2019-02-26T03:14:24.790Z,39.37
2019-02-26T03:16:53.379Z,38.17
2019-02-26T03:19:18.921Z,38.37
2019-02-26T03:21:47.193Z,37.53
2019-02-26T03:24:14.246Z,35.60
2019-02-26T03:26:40.312Z,35.90
2019-02-26T03:29:06.477Z,38.10
2019-02-26T03:31:35.072Z,34.83
2019-02-26T03:34:10.526Z,33.97
2019-02-26T03:36:38.305Z,36.70
2019-02-26T03:39:08.570Z,37.67
2019-02-26T03:41:34.944Z,35.70
2019-02-26T03:44:06.378Z,40.20
2019-02-26T03:46:32.940Z,32.70
2019-02-26T03:49:02.486Z,38.60
2019-02-26T03:51:30.793Z,36.77
2019-02-26T03:53:57.206Z,34.77
2019-02-26T03:56:23.521Z,37.43
2019-02-26T03:58:52.149Z,33.80
2019-02-26T04:01:19.422Z,30.30
2019-02-26T04:03:46.397Z,35.77
2019-02-26T04:06:12.716Z,32.53
2019-02-26T04:08:39.053Z,36.80
2019-02-26T04:11:05.331Z,38.03
2019-02-26T04:13:31.655Z,31.93
2019-02-26T04:15:59.596Z,34.10
2019-02-26T04:18:26.137Z,30.87
2019-02-26T04:20:52.346Z,33.20
2019-02-26T04:23:19.888Z,32.73
2019-02-26T04:25:54.057Z,38.20
2019-02-26T04:28:49.332Z,34.07
2019-02-26T04:31:54.663Z,31.03
2019-02-26T04:34:24.723Z,35.27
2019-02-26T04:37:07.165Z,36.60
2019-02-26T04:40:12.100Z,34.13
2019-02-26T04:42:48.629Z,30.33
2019-02-26T04:45:24.551Z,32.83
2019-02-26T04:47:55.461Z,32.77
2019-02-26T04:50:26.128Z,34.43
2019-02-26T04:52:50.278Z,31.67
2019-02-26T04:55:16.510Z,43.20
2019-02-26T04:57:45.657Z,43.60
2019-02-26T05:00:12.283Z,35.83
2019-02-26T05:02:38.593Z,33.67
2019-02-26T05:05:06.464Z,36.27
2019-02-26T05:07:32.968Z,35.57
2019-02-26T05:10:02.148Z,36.67
2019-02-26T05:12:30.755Z,45.63
2019-02-26T05:14:55.919Z,42.07
2019-02-26T05:17:24.653Z,38.00
2019-02-26T05:19:52.403Z,35.80
2019-02-26T05:22:19.838Z,37.23
2019-02-26T05:24:47.419Z,39.23
2019-02-26T05:27:18.898Z,38.30
2019-02-26T05:29:46.644Z,39.37
2019-02-26T05:32:12.506Z,39.57
2019-02-26T05:34:39.910Z,41.07
2019-02-26T05:37:08.122Z,34.17
2019-02-26T05:39:43.067Z,38.87
2019-02-26T05:42:13.451Z,40.90
2019-02-26T05:44:39.652Z,44.80
2019-02-26T05:47:13.229Z,43.47
2019-02-26T05:49:41.433Z,50.93
2019-02-26T05:52:08.161Z,39.93
2019-02-26T05:54:34.377Z,39.50
2019-02-26T05:57:27.086Z,40.67
2019-02-26T05:59:41.891Z,40.43
2019-02-26T06:02:10.599Z,44.93
2019-02-26T06:04:44.387Z,40.27
2019-02-26T06:07:11.289Z,41.87
2019-02-26T06:09:37.623Z,36.27
2019-02-26T06:12:11.751Z,37.00
2019-02-26T06:14:43.868Z,40.63
2019-02-26T06:17:15.537Z,39.10
2019-02-26T06:19:44.954Z,36.53
2019-02-26T06:22:17.035Z,40.43
2019-02-26T06:24:40.202Z,38.53
2019-02-26T06:27:08.645Z,38.63
2019-02-26T06:29:35.578Z,41.83
2019-02-26T06:32:10.120Z,39.70
2019-02-26T06:34:38.395Z,39.70
2019-02-26T06:37:16.411Z,43.90
2019-02-26T06:39:42.669Z,40.70
2019-02-26T06:42:10.319Z,35.87
2019-02-26T06:44:38.816Z,37.07
2019-02-26T06:47:09.047Z,37.23
2019-02-26T06:49:35.114Z,42.23
2019-02-26T06:52:02.006Z,36.37
2019-02-26T06:54:29.055Z,38.33
2019-02-26T06:56:58.037Z,37.30
2019-02-26T06:59:33.797Z,41.17
2019-02-26T07:01:59.058Z,34.33
2019-02-26T07:04:29.397Z,33.20
2019-02-26T07:06:55.357Z,38.90
2019-02-26T07:09:21.922Z,38.60
2019-02-26T07:11:48.163Z,37.37
2019-02-26T07:14:16.559Z,43.23
2019-02-26T07:16:42.771Z,38.03
2019-02-26T07:19:11.552Z,36.23
2019-02-26T07:21:38.038Z,39.93
2019-02-26T07:24:07.659Z,39.00
2019-02-26T07:26:33.797Z,36.60
2019-02-26T07:29:00.029Z,43.90
2019-02-26T07:31:26.924Z,40.23
2019-02-26T07:33:56.367Z,44.40
2019-02-26T07:36:23.692Z,37.97
2019-02-26T07:38:51.982Z,43.00
2019-02-26T07:41:20.701Z,48.93
2019-02-26T07:43:49.287Z,43.00
2019-02-26T07:46:17.058Z,48.73
2019-02-26T07:48:43.424Z,42.90
2019-02-26T07:51:09.814Z,41.67
2019-02-26T07:53:36.229Z,39.77
2019-02-26T07:56:04.517Z,46.80
2019-02-26T07:58:31.424Z,37.57
2019-02-26T08:00:58.847Z,46.40
2019-02-26T08:03:26.915Z,43.60
2019-02-26T08:05:53.279Z,42.27
2019-02-26T08:08:21.021Z,39.93
2019-02-26T08:10:48.893Z,43.70
2019-02-26T08:13:15.748Z,38.67
2019-02-26T08:15:41.963Z,39.10
2019-02-26T08:18:08.132Z,39.87
2019-02-26T08:20:35.679Z,40.30
2019-02-26T08:23:02.536Z,38.77
2019-02-26T08:25:31.440Z,38.23
2019-02-26T08:27:59.351Z,36.57
2019-02-26T08:30:26.181Z,34.13
2019-02-26T08:32:54.264Z,36.83
2019-02-26T08:35:20.826Z,33.60
2019-02-26T08:37:47.253Z,38.27
2019-02-26T08:40:13.886Z,39.00
2019-02-26T08:42:40.222Z,43.40
2019-02-26T08:45:09.981Z,38.50
2019-02-26T08:47:36.406Z,35.73
2019-02-26T08:50:07.377Z,35.60
2019-02-26T08:52:33.854Z,38.00
2019-02-26T08:55:00.035Z,34.87
2019-02-26T08:57:27.490Z,34.07
2019-02-26T08:59:54.646Z,36.10
2019-02-26T09:02:21.087Z,37.77
2019-02-26T09:04:47.763Z,36.70
2019-02-26T09:07:16.452Z,32.80
2019-02-26T09:09:42.539Z,31.07
2019-02-26T09:12:08.847Z,34.73
2019-02-26T09:14:37.575Z,36.83
2019-02-26T09:17:04.477Z,32.83
2019-02-26T09:19:33.125Z,33.93
2019-02-26T09:22:00.253Z,31.60
2019-02-26T09:24:26.541Z,34.83
2019-02-26T09:26:54.840Z,31.50
2019-02-26T09:29:22.230Z,35.20
2019-02-26T09:31:48.595Z,31.60
2019-02-26T09:34:14.801Z,32.30
2019-02-26T09:36:42.001Z,36.00
2019-02-26T09:39:10.558Z,34.70
2019-02-26T09:41:38.522Z,31.73
2019-02-26T09:44:06.795Z,33.33
2019-02-26T09:46:36.333Z,34.63
2019-02-26T09:49:03.128Z,34.23
2019-02-26T09:51:35.151Z,36.43
2019-02-26T09:54:01.132Z,33.63
2019-02-26T09:56:27.438Z,33.83
2019-02-26T09:58:53.708Z,36.03
2019-02-26T10:01:19.928Z,33.80
2019-02-26T10:03:46.077Z,35.03
2019-02-26T10:06:14.145Z,39.40
2019-02-26T10:08:40.270Z,36.07
2019-02-26T10:11:06.589Z,35.83
2019-02-26T10:13:32.798Z,34.10
2019-02-26T10:16:01.223Z,39.07
2019-02-26T10:18:27.907Z,37.67
2019-02-26T10:20:55.449Z,38.37
2019-02-26T10:23:23.517Z,38.37
2019-02-26T10:25:53.056Z,39.87
2019-02-26T10:28:19.509Z,40.60
2019-02-26T10:30:45.936Z,38.17
2019-02-26T10:33:12.167Z,39.47
2019-02-26T10:35:39.651Z,40.43
2019-02-26T10:38:08.980Z,36.83
2019-02-26T10:40:40.766Z,39.33
2019-02-26T10:43:03.228Z,40.67
2019-02-26T10:45:29.716Z,42.97
2019-02-26T10:47:56.917Z,40.53
2019-02-26T10:50:31.551Z,40.47
2019-02-26T10:53:01.400Z,41.17
2019-02-26T10:55:30.508Z,42.27
2019-02-26T10:57:54.822Z,39.23
2019-02-26T11:00:26.013Z,39.73
2019-02-26T11:02:54.185Z,38.97
2019-02-26T11:05:26.208Z,36.93
2019-02-26T11:07:53.153Z,39.07
2019-02-26T11:10:20.827Z,37.20
2019-02-26T11:12:48.245Z,40.63
2019-02-26T11:15:16.857Z,39.10
2019-02-26T11:17:45.590Z,38.63
2019-02-26T11:20:13.816Z,43.23
2019-02-26T11:22:42.250Z,42.33
2019-02-26T11:25:10.370Z,43.93
2019-02-26T11:27:38.032Z,42.60
2019-02-26T11:30:20.552Z,44.73
2019-02-26T11:32:46.237Z,43.20
2019-02-26T11:35:14.669Z,42.47
2019-02-26T11:37:42.432Z,39.37
2019-02-26T11:40:11.375Z,40.50
2019-02-26T11:42:37.626Z,43.33
2019-02-26T11:45:11.776Z,40.73
2019-02-26T11:47:39.152Z,41.23
2019-02-26T11:50:11.707Z,37.73
2019-02-26T11:52:37.585Z,38.07
2019-02-26T11:55:06.581Z,37.47
2019-02-26T11:57:37.672Z,34.23
2019-02-26T12:00:09.178Z,37.40
2019-02-26T12:02:37.093Z,39.57
2019-02-26T12:05:05.993Z,37.03
2019-02-26T12:07:34.849Z,39.80
2019-02-26T12:10:08.711Z,39.08
2019-02-26T12:12:31.099Z,39.07
2019-02-26T12:14:58.435Z,36.60
2019-02-26T12:17:24.716Z,37.77
2019-02-26T12:22:31.456Z,38.10
2019-02-26T12:24:58.877Z,37.70
2019-02-26T12:27:25.877Z,38.10
2019-02-26T12:29:54.376Z,38.27
2019-02-26T12:32:22.366Z,41.80
2019-02-26T12:34:51.284Z,36.55
2019-02-26T12:37:16.617Z,36.43
2019-02-26T12:39:43.738Z,35.45
2019-02-26T12:42:13.442Z,35.85
2019-02-26T12:44:42.361Z,35.00
2019-02-26T12:47:18.121Z,35.73
2019-02-26T12:49:45.132Z,35.13
2019-02-26T12:52:14.961Z,36.10
2019-02-26T12:54:42.728Z,37.87
2019-02-26T12:57:08.695Z,34.97
2019-02-26T12:59:37.610Z,35.40
2019-02-26T13:02:06.554Z,34.70
2019-02-26T13:04:33.135Z,34.20
2019-02-26T13:06:59.333Z,34.93
2019-02-26T13:09:26.897Z,31.27
2019-02-26T13:12:01.292Z,29.43
2019-02-26T13:14:21.297Z,30.77
2019-02-26T13:16:48.844Z,29.60
2019-02-26T13:19:21.437Z,30.00
2019-02-26T13:21:44.266Z,29.63
2019-02-26T13:26:38.955Z,28.95
2019-02-26T13:29:16.297Z,27.73
2019-02-26T13:31:50.787Z,27.07
2019-02-26T13:36:43.750Z,27.35
2019-02-26T13:39:09.842Z,30.62
2019-02-26T13:44:09.678Z,31.23
2019-02-26T13:46:38.244Z,29.77
2019-02-26T13:49:05.824Z,28.83
2019-02-26T13:51:32.484Z,28.23
2019-02-26T13:53:58.636Z,27.93
2019-02-26T13:56:24.823Z,26.95
2019-02-26T13:58:50.948Z,28.70
2019-02-26T14:01:17.133Z,29.15
2019-02-26T14:03:43.573Z,31.60
2019-02-26T14:06:09.750Z,30.70
2019-02-26T14:08:36.455Z,29.30
2019-02-26T14:11:06.147Z,29.95
2019-02-26T14:13:37.717Z,29.72
2019-02-26T14:16:08.126Z,27.95
2019-02-26T14:18:34.232Z,28.38
2019-02-26T14:23:39.432Z,25.32
2019-02-26T14:26:06.424Z,26.62
2019-02-26T14:28:32.617Z,24.67
2019-02-26T14:30:58.831Z,27.40
2019-02-26T14:33:25.077Z,25.32
2019-02-26T14:35:51.247Z,27.02
2019-02-26T14:38:17.579Z,21.52
2019-02-26T14:40:44.834Z,22.93
2019-02-26T14:43:11.247Z,24.95
2019-02-26T14:45:47.214Z,21.80
2019-02-26T14:48:13.865Z,21.23
2019-02-26T14:50:40.366Z,24.23
2019-02-26T14:53:12.736Z,23.52
2019-02-26T14:55:38.912Z,21.02
2019-02-26T14:58:10.581Z,22.07
2019-02-26T15:00:37.160Z,25.80
2019-02-26T15:03:07.181Z,25.00
2019-02-26T15:05:33.412Z,25.75
2019-02-26T15:07:59.752Z,25.97
2019-02-26T15:10:25.966Z,25.65
2019-02-26T15:12:52.797Z,26.48
2019-02-26T15:15:19.470Z,23.75
2019-02-26T15:17:45.937Z,24.12
2019-02-26T15:20:16.935Z,24.18
2019-02-26T15:22:43.242Z,22.27
2019-02-26T15:25:15.857Z,24.85
2019-02-26T15:27:43.491Z,24.52
2019-02-26T15:30:16.246Z,27.40
2019-02-26T15:32:44.178Z,23.73
2019-02-26T15:35:10.380Z,23.67
2019-02-26T15:37:38.337Z,22.10
2019-02-26T15:40:10.486Z,21.93
2019-02-26T15:42:36.841Z,26.40
2019-02-26T15:45:06.776Z,26.80
2019-02-26T15:47:33.422Z,24.85
2019-02-26T15:49:59.912Z,24.52
2019-02-26T15:52:32.944Z,24.80
2019-02-26T15:54:59.162Z,25.75
2019-02-26T15:57:25.494Z,25.92
2019-02-26T15:59:51.740Z,29.67
2019-02-26T16:02:17.955Z,30.17
2019-02-26T16:04:45.229Z,28.45
2019-02-26T16:07:11.437Z,28.45
2019-02-26T16:09:37.658Z,26.97
2019-02-26T16:12:06.400Z,29.77
2019-02-26T16:14:32.572Z,28.42
2019-02-26T16:16:58.911Z,29.10
2019-02-26T16:19:25.195Z,28.25
2019-02-26T16:21:51.315Z,25.95
2019-02-26T16:24:17.464Z,28.00
2019-02-26T16:26:43.782Z,27.65
2019-02-26T16:29:09.991Z,27.95
2019-02-26T16:31:36.314Z,27.70
2019-02-26T16:34:06.237Z,28.92
2019-02-26T16:36:32.663Z,27.53
2019-02-26T16:38:58.793Z,29.00
2019-02-26T16:41:24.900Z,29.90
2019-02-26T16:43:51.825Z,29.43
2019-02-26T16:46:18.822Z,29.93
2019-02-26T16:48:45.152Z,30.37
2019-02-26T16:51:21.578Z,26.53
2019-02-26T16:53:46.756Z,27.63
2019-02-26T16:56:13.305Z,29.97
2019-02-26T16:58:40.045Z,33.87
2019-02-26T17:01:13.177Z,33.13
2019-02-26T17:03:45.964Z,29.43
2019-02-26T17:06:12.370Z,31.43
2019-02-26T17:08:38.725Z,35.10
2019-02-26T17:11:08.979Z,29.67
2019-02-26T17:13:37.201Z,32.40
2019-02-26T17:16:05.663Z,31.60
2019-02-26T17:18:36.807Z,32.23
2019-02-26T17:21:05.624Z,32.73
2019-02-26T17:23:31.896Z,34.97
2019-02-26T17:26:00.373Z,32.57
2019-02-26T17:28:26.682Z,35.37
2019-02-26T17:30:53.348Z,32.93
2019-02-26T17:33:19.520Z,37.17
2019-02-26T17:35:45.749Z,41.73
2019-02-26T17:38:12.893Z,36.33
2019-02-26T17:40:40.097Z,35.00
2019-02-26T17:43:06.563Z,38.60
2019-02-26T17:45:34.936Z,34.97
2019-02-26T17:48:04.028Z,37.20
2019-02-26T17:50:38.022Z,35.97
2019-02-26T17:53:04.479Z,37.57
2019-02-26T17:55:30.817Z,35.97
2019-02-26T17:57:57.143Z,38.50
2019-02-26T18:00:25.650Z,34.23
2019-02-26T18:02:51.842Z,34.90
2019-02-26T18:05:18.105Z,37.57
2019-02-26T18:07:44.345Z,37.60
2019-02-26T18:10:13.523Z,39.30
2019-02-26T18:12:42.641Z,33.57
2019-02-26T18:15:10.070Z,37.10
2019-02-26T18:17:36.400Z,34.40
2019-02-26T18:20:05.338Z,41.20
2019-02-26T18:22:31.818Z,41.00
2019-02-26T18:24:58.124Z,86.13
2019-02-26T18:27:24.551Z,74.77
2019-02-26T18:29:50.797Z,46.17
2019-02-26T18:32:17.158Z,39.07
2019-02-26T18:34:43.617Z,47.97
2019-02-26T18:37:10.093Z,43.93
2019-02-26T18:39:36.484Z,39.03
2019-02-26T18:42:02.890Z,40.07
2019-02-26T18:44:29.377Z,41.73
2019-02-26T18:46:55.626Z,42.87
2019-02-26T18:49:23.089Z,38.90
2019-02-26T18:51:49.869Z,39.03
2019-02-26T18:54:17.716Z,38.87
2019-02-26T18:56:44.552Z,38.77
2019-02-26T18:59:10.673Z,39.97
2019-02-26T19:01:37.077Z,42.60
2019-02-26T19:04:03.414Z,37.67
2019-02-26T19:06:29.727Z,40.50
2019-02-26T19:08:56.037Z,45.30
2019-02-26T19:11:25.359Z,36.83
2019-02-26T19:13:51.427Z,44.27
2019-02-26T19:16:20.417Z,40.03
2019-02-26T19:18:46.087Z,42.87
2019-02-26T19:21:12.373Z,40.20
2019-02-26T19:23:38.919Z,40.87
2019-02-26T19:26:06.406Z,42.90
2019-02-26T19:28:32.561Z,39.73
2019-02-26T19:30:58.978Z,42.43
2019-02-26T19:33:25.260Z,45.07
2019-02-26T19:35:51.702Z,42.10
2019-02-26T19:38:17.949Z,47.40
2019-02-26T19:41:03.357Z,42.17
2019-02-26T19:43:29.811Z,43.67
2019-02-26T19:45:57.121Z,43.33
2019-02-26T19:48:23.576Z,44.07
2019-02-26T19:50:49.822Z,43.80
2019-02-26T19:53:16.324Z,41.33
2019-02-26T19:55:48.814Z,39.37
2019-02-26T19:58:12.726Z,41.07
2019-02-26T20:00:38.951Z,41.10
2019-02-26T20:03:06.242Z,40.50
2019-02-26T20:05:32.498Z,42.47
2019-02-26T20:07:58.621Z,43.77
2019-02-26T20:10:24.831Z,45.13
2019-02-26T20:12:51.023Z,45.27
2019-02-26T20:15:17.210Z,49.47
2019-02-26T20:17:43.693Z,46.60
2019-02-26T20:20:16.748Z,47.00
2019-02-26T20:22:43.214Z,49.87
2019-02-26T20:25:13.914Z,48.07
2019-02-26T20:27:40.163Z,46.07
2019-02-26T20:30:16.733Z,49.03
2019-02-26T20:32:43.034Z,46.20
2019-02-26T20:35:11.934Z,58.17
2019-02-26T20:37:40.145Z,52.03
2019-02-26T20:40:18.416Z,48.93
2019-02-26T20:42:45.205Z,48.13
2019-02-26T20:45:17.816Z,67.33
2019-02-26T20:47:46.506Z,59.50
2019-02-26T20:50:12.791Z,56.50
2019-02-26T20:52:39.229Z,61.30
2019-02-26T20:55:23.719Z,60.10
2019-02-26T21:00:25.254Z,52.20
2019-02-26T21:02:58.376Z,55.47
2019-02-26T21:05:25.158Z,56.27
2019-02-26T21:07:51.455Z,53.50
2019-02-26T21:10:18.565Z,59.77
2019-02-26T21:12:45.124Z,56.53
2019-02-26T21:15:24.030Z,65.27
2019-02-26T21:17:58.079Z,62.80
2019-02-26T21:20:24.989Z,66.60
2019-02-26T21:22:54.510Z,64.03
2019-02-26T21:25:19.106Z,60.60
2019-02-26T21:27:45.932Z,61.43
2019-02-26T21:30:14.448Z,59.50
2019-02-26T21:32:45.420Z,58.07
2019-02-26T21:35:13.106Z,58.73
2019-02-26T21:37:40.353Z,64.33
2019-02-26T21:40:17.932Z,58.97
2019-02-26T21:42:50.724Z,58.70
2019-02-26T21:45:17.455Z,56.70
2019-02-26T21:47:43.776Z,55.60
2019-02-26T21:50:13.328Z,52.37
2019-02-26T21:52:42.139Z,53.07
2019-02-26T21:55:13.393Z,54.13
2019-02-26T21:57:39.566Z,52.43
2019-02-26T22:00:20.281Z,51.90
2019-02-26T22:02:52.071Z,57.47
2019-02-26T22:05:16.945Z,49.47
2019-02-26T22:07:44.478Z,50.67
2019-02-26T22:10:15.163Z,54.13
2019-02-26T22:12:42.382Z,48.87
2019-02-26T22:15:11.093Z,53.30
2019-02-26T22:17:37.449Z,49.63
2019-02-26T22:20:23.694Z,51.90
2019-02-26T22:22:45.280Z,50.00
2019-02-26T22:25:15.825Z,54.60
2019-02-26T22:27:40.916Z,52.87
2019-02-26T22:30:10.821Z,53.03
2019-02-26T22:32:38.751Z,47.50
2019-02-26T22:35:07.187Z,50.43
2019-02-26T22:37:33.379Z,52.53
2019-02-26T22:39:59.688Z,50.13
2019-02-26T22:42:26.535Z,51.37
2019-02-26T22:44:54.839Z,52.27
2019-02-26T22:47:21.007Z,57.40
2019-02-26T22:49:47.350Z,55.10
2019-02-26T22:52:13.443Z,54.67
2019-02-26T22:54:40.718Z,58.07
2019-02-26T22:57:07.618Z,55.57
2019-02-26T22:59:33.845Z,54.33
2019-02-26T23:02:00.241Z,61.17
2019-02-26T23:04:32.566Z,53.13
2019-02-26T23:06:58.954Z,54.50
2019-02-26T23:09:26.863Z,51.70
2019-02-26T23:11:53.229Z,55.87
2019-02-26T23:14:19.938Z,53.60
2019-02-26T23:16:46.375Z,51.13
2019-02-26T23:19:12.974Z,51.67
2019-02-26T23:21:40.841Z,52.97
2019-02-26T23:24:07.232Z,51.23
2019-02-26T23:26:34.132Z,49.67
2019-02-26T23:29:04.413Z,52.50
2019-02-26T23:31:32.876Z,54.23
2019-02-26T23:33:59.527Z,52.53
2019-02-26T23:36:28.579Z,53.37
2019-02-26T23:38:54.031Z,54.50
2019-02-26T23:41:20.426Z,51.07
2019-02-26T23:43:46.726Z,51.53
2019-02-26T23:46:14.041Z,50.10
2019-02-26T23:48:40.993Z,53.37
2019-02-26T23:51:08.841Z,54.23
2019-02-26T23:53:34.975Z,58.27
2019-02-26T23:56:04.970Z,52.00
2019-02-26T23:58:31.674Z,54.10
